createdAt,value
2023-01-12T00:01:56.097Z,92.60
2023-01-12T00:04:22.777Z,92.50
2023-01-12T00:06:49.423Z,92.50
2023-01-12T00:09:16.063Z,92.40
2023-01-12T00:11:42.874Z,92.60
2023-01-12T00:14:09.942Z,92.70
2023-01-12T00:16:37.958Z,93.30
2023-01-12T00:19:13.579Z,93.20
2023-01-12T00:22:03.597Z,93.20
2023-01-12T00:24:35.915Z,93.10
2023-01-12T00:27:05.252Z,93.40
2023-01-12T00:29:32.247Z,93.60
2023-01-12T00:32:00.683Z,93.60
2023-01-12T00:34:29.686Z,93.90
2023-01-12T00:36:59.395Z,94.10
2023-01-12T00:39:26.001Z,94.20
2023-01-12T00:42:11.436Z,94.60
2023-01-12T00:44:56.746Z,94.90
2023-01-12T00:47:23.471Z,95.10
2023-01-12T00:49:50.175Z,95.10
2023-01-12T00:52:29.823Z,95.30
2023-01-12T00:54:57.293Z,95.90
2023-01-12T00:57:24.273Z,96.20
2023-01-12T00:59:54.901Z,95.90
2023-01-12T01:02:21.989Z,96.00
2023-01-12T01:04:49.947Z,95.70
2023-01-12T01:07:17.165Z,95.70
2023-01-12T01:09:44.213Z,96.00
2023-01-12T01:12:10.845Z,95.90
2023-01-12T01:14:37.501Z,96.00
2023-01-12T01:17:04.228Z,96.10
2023-01-12T01:19:30.869Z,96.30
2023-01-12T01:21:57.729Z,96.20
2023-01-12T01:24:24.459Z,96.00
2023-01-12T01:26:51.511Z,96.10
2023-01-12T01:29:18.451Z,96.50
2023-01-12T01:31:47.582Z,96.50
2023-01-12T01:34:14.711Z,96.70
2023-01-12T01:36:41.560Z,96.60
2023-01-12T01:39:08.337Z,96.70
2023-01-12T01:41:34.926Z,96.50
2023-01-12T01:44:26.316Z,96.50
2023-01-12T01:46:58.727Z,96.80
2023-01-12T01:49:45.243Z,97.30
2023-01-12T01:52:16.024Z,97.40
2023-01-12T01:54:58.579Z,97.50
2023-01-12T01:57:29.641Z,97.60
2023-01-12T01:59:58.152Z,97.40
2023-01-12T02:02:26.452Z,97.40
2023-01-12T02:04:55.392Z,97.60
2023-01-12T02:07:22.079Z,97.50
2023-01-12T02:09:48.787Z,97.40
2023-01-12T02:12:34.967Z,97.80
2023-01-12T02:15:20.482Z,97.70
2023-01-12T02:18:18.763Z,97.90
2023-01-12T02:20:57.376Z,97.70
2023-01-12T02:23:42.240Z,97.70
2023-01-12T02:26:46.425Z,97.60
2023-01-12T02:29:31.760Z,97.90
2023-01-12T02:32:08.673Z,97.60
2023-01-12T02:35:06.388Z,97.70
2023-01-12T02:37:45.248Z,97.40
2023-01-12T02:40:35.389Z,97.30
2023-01-12T02:43:11.801Z,97.40
2023-01-12T02:45:45.970Z,97.40
2023-01-12T02:48:43.740Z,97.40
2023-01-12T02:51:48.802Z,97.00
2023-01-12T02:54:19.639Z,96.90
2023-01-12T02:56:49.650Z,97.00
2023-01-12T02:59:38.158Z,97.00
2023-01-12T03:02:09.569Z,96.80
2023-01-12T03:04:36.777Z,96.90
2023-01-12T03:07:03.380Z,96.90
2023-01-12T03:09:44.764Z,97.20
2023-01-12T03:12:19.955Z,97.50
2023-01-12T03:14:50.233Z,97.90
2023-01-12T03:17:32.551Z,98.10
2023-01-12T03:20:07.158Z,97.60
2023-01-12T03:22:37.186Z,97.60
2023-01-12T03:25:10.297Z,97.30
2023-01-12T03:27:43.082Z,97.60
2023-01-12T03:30:23.215Z,97.40
2023-01-12T03:32:50.881Z,97.30
2023-01-12T03:35:21.100Z,97.30
2023-01-12T03:38:00.154Z,97.20
2023-01-12T03:40:34.743Z,97.30
2023-01-12T03:43:15.901Z,97.40
2023-01-12T03:45:54.900Z,97.40
2023-01-12T03:48:26.525Z,97.90
2023-01-12T03:51:08.633Z,97.80
2023-01-12T03:53:35.866Z,97.70
2023-01-12T03:56:08.813Z,97.50
2023-01-12T03:58:36.145Z,97.80
2023-01-12T04:01:04.444Z,97.50
2023-01-12T04:03:31.285Z,97.50
2023-01-12T04:05:57.885Z,97.60
2023-01-12T04:08:24.507Z,97.50
2023-01-12T04:10:51.167Z,97.70
2023-01-12T04:13:17.800Z,97.30
2023-01-12T04:15:44.393Z,98.00
2023-01-12T04:18:12.399Z,97.50
2023-01-12T04:20:39.679Z,97.50
2023-01-12T04:23:07.153Z,97.60
2023-01-12T04:25:35.654Z,97.80
2023-01-12T04:28:02.953Z,97.50
2023-01-12T04:30:31.653Z,97.50
2023-01-12T04:32:59.593Z,97.50
2023-01-12T04:35:27.608Z,97.50
2023-01-12T04:37:54.637Z,97.60
2023-01-12T04:40:21.424Z,98.00
2023-01-12T04:43:12.008Z,98.20
2023-01-12T04:45:41.452Z,98.30
2023-01-12T04:48:10.631Z,98.30
2023-01-12T04:50:38.316Z,98.30
2023-01-12T04:53:09.933Z,98.50
2023-01-12T04:55:37.979Z,98.50
2023-01-12T04:58:04.734Z,98.30
2023-01-12T05:00:31.751Z,98.60
2023-01-12T05:03:02.206Z,98.50
2023-01-12T05:05:30.455Z,98.50
2023-01-12T05:08:19.071Z,98.40
2023-01-12T05:10:53.245Z,98.60
2023-01-12T05:13:20.676Z,98.70
2023-01-12T05:15:47.382Z,98.80
2023-01-12T05:18:14.049Z,98.60
2023-01-12T05:20:40.682Z,98.60
2023-01-12T05:23:07.304Z,98.40
2023-01-12T05:25:34.059Z,98.50
2023-01-12T05:28:01.143Z,98.80
2023-01-12T05:30:31.268Z,98.80
2023-01-12T05:32:58.214Z,98.90
2023-01-12T05:35:24.854Z,99.60
2023-01-12T05:37:51.482Z,99.00
2023-01-12T05:40:18.209Z,98.80
2023-01-12T05:43:03.395Z,99.00
2023-01-12T05:45:30.110Z,99.10
2023-01-12T05:48:01.864Z,98.80
2023-01-12T05:50:28.952Z,99.00
2023-01-12T05:52:56.206Z,99.20
2023-01-12T05:55:22.972Z,99.20
2023-01-12T05:57:49.672Z,99.50
2023-01-12T06:00:17.104Z,99.40
2023-01-12T06:02:43.756Z,99.50
2023-01-12T06:05:10.865Z,99.60
2023-01-12T06:07:37.583Z,99.60
2023-01-12T06:10:05.650Z,99.50
2023-01-12T06:12:51.229Z,99.50
2023-01-12T06:15:17.864Z,99.90
2023-01-12T06:17:44.486Z,99.90
2023-01-12T06:20:14.856Z,99.90
2023-01-12T06:22:41.528Z,99.90
2023-01-12T06:25:08.728Z,99.90
2023-01-12T06:27:35.960Z,99.90
2023-01-12T06:30:02.611Z,99.90
2023-01-12T06:32:29.255Z,99.90
2023-01-12T06:35:01.638Z,99.90
2023-01-12T06:37:33.565Z,99.90
2023-01-12T06:40:00.286Z,99.90
2023-01-12T06:42:30.024Z,99.90
2023-01-12T06:45:00.790Z,99.90
2023-01-12T06:47:28.331Z,99.90
2023-01-12T06:49:54.978Z,99.90
2023-01-12T06:52:24.247Z,99.90
2023-01-12T06:54:51.512Z,99.90
2023-01-12T06:57:18.840Z,99.90
2023-01-12T06:59:45.671Z,99.90
2023-01-12T07:02:14.060Z,99.90
2023-01-12T07:04:41.633Z,99.90
2023-01-12T07:07:09.616Z,99.90
2023-01-12T07:09:36.831Z,99.90
2023-01-12T07:12:04.272Z,99.90
2023-01-12T07:14:30.934Z,99.90
2023-01-12T07:16:57.608Z,99.90
2023-01-12T07:19:24.290Z,99.90
2023-01-12T07:21:51.021Z,99.90
2023-01-12T07:24:17.884Z,99.90
2023-01-12T07:26:44.628Z,99.90
2023-01-12T07:29:12.348Z,99.90
2023-01-12T07:31:39.050Z,99.90
2023-01-12T07:34:05.698Z,99.90
2023-01-12T07:36:32.972Z,99.90
2023-01-12T07:39:00.567Z,99.90
2023-01-12T07:41:45.621Z,99.90
2023-01-12T07:44:12.233Z,99.90
2023-01-12T07:46:38.890Z,99.90
2023-01-12T07:49:05.575Z,99.90
2023-01-12T07:51:32.277Z,99.90
2023-01-12T07:53:58.945Z,99.90
2023-01-12T07:56:25.579Z,99.90
2023-01-12T07:58:52.224Z,99.90
2023-01-12T08:01:19.053Z,99.90
2023-01-12T08:03:45.847Z,99.90
2023-01-12T08:06:12.506Z,99.90
2023-01-12T08:08:39.214Z,99.90
2023-01-12T08:11:08.216Z,99.90
2023-01-12T08:13:35.868Z,99.90
2023-01-12T08:16:08.750Z,99.90
2023-01-12T08:18:50.938Z,99.90
2023-01-12T08:21:21.929Z,99.90
2023-01-12T08:23:54.772Z,99.90
2023-01-12T08:26:25.264Z,99.90
2023-01-12T08:29:01.174Z,99.90
2023-01-12T08:31:27.997Z,99.90
2023-01-12T08:33:55.432Z,99.90
2023-01-12T08:36:24.885Z,99.90
2023-01-12T08:38:51.923Z,99.90
2023-01-12T08:41:33.810Z,99.90
2023-01-12T08:44:02.150Z,99.90
2023-01-12T08:46:37.732Z,99.90
2023-01-12T08:49:08.317Z,99.90
2023-01-12T08:51:35.535Z,99.90
2023-01-12T08:54:02.766Z,99.90
2023-01-12T08:56:29.377Z,99.90
2023-01-12T08:58:55.948Z,99.90
2023-01-12T09:01:22.839Z,99.80
2023-01-12T09:03:49.613Z,99.90
2023-01-12T09:06:25.598Z,99.90
2023-01-12T09:08:57.361Z,99.90
2023-01-12T09:11:24.490Z,99.90
2023-01-12T09:13:51.056Z,99.90
2023-01-12T09:16:19.674Z,99.80
2023-01-12T09:18:46.516Z,99.90
2023-01-12T09:21:15.543Z,99.90
2023-01-12T09:23:43.040Z,99.90
2023-01-12T09:26:11.996Z,99.90
2023-01-12T09:28:38.870Z,99.90
2023-01-12T09:31:10.991Z,99.90
2023-01-12T09:33:39.112Z,99.90
2023-01-12T09:36:08.659Z,99.90
2023-01-12T09:38:37.190Z,99.90
2023-01-12T09:41:10.130Z,99.90
2023-01-12T09:43:55.699Z,99.70
2023-01-12T09:46:50.683Z,99.80
2023-01-12T09:49:18.563Z,99.90
2023-01-12T09:51:58.832Z,99.90
2023-01-12T09:54:25.766Z,99.90
2023-01-12T09:57:10.888Z,99.90
2023-01-12T10:00:08.800Z,99.90
2023-01-12T10:02:38.794Z,99.90
2023-01-12T10:05:13.729Z,99.80
2023-01-12T10:07:42.157Z,99.80
2023-01-12T10:10:14.654Z,99.40
2023-01-12T10:12:46.388Z,99.50
2023-01-12T10:15:27.863Z,99.20
2023-01-12T10:18:08.873Z,99.30
2023-01-12T10:20:41.709Z,99.20
2023-01-12T10:23:08.387Z,99.30
2023-01-12T10:25:39.113Z,99.50
2023-01-12T10:28:16.172Z,99.30
2023-01-12T10:30:43.589Z,99.40
2023-01-12T10:33:19.555Z,99.70
2023-01-12T10:36:00.928Z,99.90
2023-01-12T10:38:52.708Z,99.90
2023-01-12T10:41:21.257Z,99.90
2023-01-12T10:43:59.689Z,99.90
2023-01-12T10:46:32.255Z,99.90
2023-01-12T10:49:22.639Z,99.90
2023-01-12T10:51:53.495Z,99.90
2023-01-12T10:54:31.564Z,99.90
2023-01-12T10:57:18.854Z,99.90
2023-01-12T10:59:58.220Z,99.90
2023-01-12T11:02:28.354Z,99.90
2023-01-12T11:04:55.599Z,99.90
2023-01-12T11:07:30.353Z,99.90
2023-01-12T11:10:19.334Z,99.90
2023-01-12T11:12:55.177Z,99.90
2023-01-12T11:15:22.098Z,99.90
2023-01-12T11:18:15.096Z,99.90
2023-01-12T11:20:52.916Z,99.90
2023-01-12T11:23:35.793Z,99.90
2023-01-12T11:26:04.358Z,99.90
2023-01-12T11:28:44.699Z,99.90
2023-01-12T11:31:25.513Z,99.90
2023-01-12T11:34:01.946Z,99.90
2023-01-12T11:36:32.706Z,99.90
2023-01-12T11:39:07.135Z,99.90
2023-01-12T11:42:05.051Z,99.90
2023-01-12T11:44:40.955Z,99.90
2023-01-12T11:47:12.944Z,99.90
2023-01-12T11:49:47.069Z,99.90
2023-01-12T11:52:16.235Z,99.90
2023-01-12T11:54:43.419Z,99.90
2023-01-12T11:57:42.869Z,99.90
2023-01-12T12:00:35.400Z,99.90
2023-01-12T12:03:42.419Z,99.90
2023-01-12T12:06:24.234Z,99.90
2023-01-12T12:09:03.112Z,99.90
2023-01-12T12:11:45.899Z,99.90
2023-01-12T12:14:15.419Z,99.90
2023-01-12T12:16:48.898Z,99.90
2023-01-12T12:19:42.202Z,99.90
2023-01-12T12:22:17.614Z,99.90
2023-01-12T12:25:14.552Z,99.90
2023-01-12T12:27:53.697Z,99.90
2023-01-12T12:31:01.643Z,99.90
2023-01-12T12:33:55.300Z,99.90
2023-01-12T12:36:37.495Z,99.90
2023-01-12T12:39:22.839Z,99.90
2023-01-12T12:42:13.943Z,99.90
2023-01-12T12:45:17.403Z,99.90
2023-01-12T12:48:09.435Z,99.90
2023-01-12T12:50:48.352Z,99.90
2023-01-12T12:53:36.790Z,99.90
2023-01-12T12:56:12.484Z,99.90
2023-01-12T12:58:56.014Z,99.90
2023-01-12T13:01:27.106Z,99.90
2023-01-12T13:04:04.923Z,99.90
2023-01-12T13:06:37.132Z,99.90
2023-01-12T13:09:25.130Z,99.90
2023-01-12T13:12:00.257Z,99.90
2023-01-12T13:14:41.649Z,99.90
2023-01-12T13:17:20.234Z,99.90
2023-01-12T13:20:08.376Z,99.90
2023-01-12T13:22:48.054Z,99.90
2023-01-12T13:25:19.350Z,99.90
2023-01-12T13:27:57.721Z,99.90
2023-01-12T13:30:40.192Z,99.90
2023-01-12T13:33:22.949Z,99.90
2023-01-12T13:35:49.536Z,99.90
2023-01-12T13:38:37.413Z,99.90
2023-01-12T13:41:42.741Z,99.90
2023-01-12T13:44:34.604Z,99.90
2023-01-12T13:47:14.279Z,99.90
2023-01-12T13:49:53.041Z,99.90
2023-01-12T13:52:32.377Z,99.90
2023-01-12T13:54:59.725Z,99.90
2023-01-12T13:57:31.200Z,99.90
2023-01-12T14:00:09.239Z,99.90
2023-01-12T14:02:38.007Z,99.90
2023-01-12T14:05:20.417Z,99.90
2023-01-12T14:08:20.972Z,99.90
2023-01-12T14:11:05.761Z,99.90
2023-01-12T14:13:53.068Z,99.90
2023-01-12T14:16:38.269Z,99.90
2023-01-12T14:19:28.062Z,99.90
2023-01-12T14:21:57.798Z,99.90
2023-01-12T14:24:25.262Z,99.90
2023-01-12T14:26:52.038Z,99.90
2023-01-12T14:29:18.702Z,99.90
2023-01-12T14:31:49.724Z,99.90
2023-01-12T14:34:27.957Z,99.90
2023-01-12T14:36:55.205Z,99.90
2023-01-12T14:39:25.855Z,99.90
2023-01-12T14:42:16.253Z,99.90
2023-01-12T14:45:13.998Z,99.90
2023-01-12T14:47:41.585Z,99.90
2023-01-12T14:50:14.463Z,99.90
2023-01-12T14:52:43.098Z,99.90
2023-01-12T14:55:26.150Z,99.90
2023-01-12T14:57:57.411Z,99.90
2023-01-12T15:00:26.409Z,99.90
2023-01-12T15:02:55.732Z,99.90
2023-01-12T15:05:28.415Z,99.90
2023-01-12T15:07:58.616Z,99.90
2023-01-12T15:10:39.315Z,99.90
2023-01-12T15:13:17.942Z,99.90
2023-01-12T15:16:03.108Z,99.90
2023-01-12T15:18:48.417Z,99.90
2023-01-12T15:21:33.819Z,99.90
2023-01-12T15:24:19.297Z,99.90
2023-01-12T15:26:47.949Z,99.90
2023-01-12T15:29:19.871Z,99.90
2023-01-12T15:31:46.477Z,99.90
2023-01-12T15:34:13.113Z,99.90
2023-01-12T15:36:39.712Z,99.90
2023-01-12T15:39:06.328Z,99.90
2023-01-12T15:41:51.505Z,99.90
2023-01-12T15:44:20.897Z,99.90
2023-01-12T15:46:47.873Z,99.90
2023-01-12T15:49:15.360Z,99.90
2023-01-12T15:51:46.697Z,99.90
2023-01-12T15:54:19.253Z,99.90
2023-01-12T15:56:46.449Z,99.90
2023-01-12T15:59:13.175Z,99.90
2023-01-12T16:01:45.960Z,99.90
2023-01-12T16:04:42.289Z,99.90
2023-01-12T16:07:09.074Z,99.90
2023-01-12T16:09:35.926Z,99.90
2023-01-12T16:12:02.557Z,99.90
2023-01-12T16:14:29.208Z,99.90
2023-01-12T16:16:55.873Z,99.90
2023-01-12T16:19:23.532Z,99.90
2023-01-12T16:21:50.212Z,99.90
2023-01-12T16:24:16.992Z,99.90
2023-01-12T16:26:44.048Z,99.90
2023-01-12T16:29:10.759Z,99.90
2023-01-12T16:31:39.181Z,99.90
2023-01-12T16:34:06.264Z,99.90
2023-01-12T16:36:33.589Z,99.90
2023-01-12T16:39:00.503Z,99.90
2023-01-12T16:41:27.247Z,99.90
2023-01-12T16:43:54.809Z,99.90
2023-01-12T16:46:21.427Z,99.90
2023-01-12T16:48:48.201Z,99.90
2023-01-12T16:51:17.271Z,99.90
2023-01-12T16:53:46.137Z,99.90
2023-01-12T16:56:15.393Z,99.90
2023-01-12T16:58:47.698Z,99.90
2023-01-12T17:01:17.252Z,99.90
2023-01-12T17:03:44.505Z,99.90
2023-01-12T17:06:14.768Z,99.90
2023-01-12T17:08:41.930Z,99.90
2023-01-12T17:11:13.984Z,99.90
2023-01-12T17:13:41.575Z,99.90
2023-01-12T17:16:12.041Z,99.90
2023-01-12T17:18:39.369Z,99.90
2023-01-12T17:21:09.283Z,99.90
2023-01-12T17:23:36.091Z,99.90
2023-01-12T17:26:03.535Z,99.90
2023-01-12T17:28:30.380Z,99.90
2023-01-12T17:30:57.668Z,99.90
2023-01-12T17:33:24.377Z,99.90
2023-01-12T17:35:50.969Z,99.90
2023-01-12T17:38:17.648Z,99.90
2023-01-12T17:40:44.398Z,99.90
2023-01-12T17:43:14.542Z,99.90
2023-01-12T17:45:42.694Z,99.90
2023-01-12T17:48:13.042Z,99.90
2023-01-12T17:50:40.500Z,99.90
2023-01-12T17:53:09.328Z,99.90
2023-01-12T17:55:47.567Z,99.90
2023-01-12T17:58:17.376Z,99.90
2023-01-12T18:00:44.492Z,99.90
2023-01-12T18:03:11.126Z,99.90
2023-01-12T18:05:38.481Z,99.90
2023-01-12T18:08:05.211Z,99.90
2023-01-12T18:10:31.969Z,99.90
2023-01-12T18:12:59.005Z,99.90
2023-01-12T18:15:25.597Z,99.90
2023-01-12T18:17:52.248Z,99.90
2023-01-12T18:20:18.927Z,99.90
2023-01-12T18:22:45.633Z,99.90
2023-01-12T18:25:12.225Z,99.90
2023-01-12T18:27:38.953Z,99.90
2023-01-12T18:30:06.107Z,99.90
2023-01-12T18:32:32.747Z,99.90
2023-01-12T18:34:59.947Z,99.90
2023-01-12T18:37:26.591Z,99.90
2023-01-12T18:39:53.225Z,99.90
2023-01-12T18:42:38.361Z,99.90
2023-01-12T18:45:05.341Z,99.90
2023-01-12T18:47:50.765Z,99.90
2023-01-12T18:50:36.334Z,99.90
2023-01-12T18:53:21.565Z,99.90
2023-01-12T18:55:50.633Z,99.90
2023-01-12T18:58:17.339Z,99.90
2023-01-12T19:00:43.945Z,99.90
2023-01-12T19:03:11.868Z,99.90
2023-01-12T19:05:53.320Z,99.90
2023-01-12T19:08:29.169Z,99.90
2023-01-12T19:11:05.910Z,99.90
2023-01-12T19:13:51.386Z,99.90
2023-01-12T19:16:36.886Z,99.90
2023-01-12T19:19:03.549Z,99.90
2023-01-12T19:21:48.631Z,99.90
2023-01-12T19:24:33.930Z,99.90
2023-01-12T19:27:19.408Z,99.90
2023-01-12T19:29:46.599Z,99.90
2023-01-12T19:32:14.041Z,99.90
2023-01-12T19:34:40.817Z,99.90
2023-01-12T19:37:07.418Z,99.90
2023-01-12T19:40:00.916Z,99.90
2023-01-12T19:42:47.065Z,99.90
2023-01-12T19:45:13.946Z,99.90
2023-01-12T19:47:40.926Z,99.90
2023-01-12T19:50:09.662Z,99.90
2023-01-12T19:52:38.129Z,99.90
2023-01-12T19:55:07.900Z,99.90
2023-01-12T19:57:38.481Z,99.90
2023-01-12T20:00:08.498Z,99.90
2023-01-12T20:02:35.407Z,99.90
2023-01-12T20:05:02.064Z,99.90
2023-01-12T20:07:28.685Z,99.90
2023-01-12T20:09:55.298Z,99.90
2023-01-12T20:12:21.890Z,99.90
2023-01-12T20:14:48.503Z,99.90
2023-01-12T20:17:15.230Z,99.90
2023-01-12T20:19:41.870Z,99.90
2023-01-12T20:22:08.669Z,99.90
2023-01-12T20:24:35.320Z,99.90
2023-01-12T20:27:01.909Z,99.90
2023-01-12T20:29:28.495Z,99.90
2023-01-12T20:31:55.431Z,99.90
2023-01-12T20:34:22.164Z,99.90
2023-01-12T20:36:49.077Z,98.30
2023-01-12T20:39:16.244Z,99.90
2023-01-12T20:41:43.035Z,99.50
2023-01-12T20:44:14.994Z,99.90
2023-01-12T20:46:42.187Z,99.80
2023-01-12T20:49:09.405Z,99.90
2023-01-12T20:51:36.105Z,99.90
2023-01-12T20:54:04.973Z,99.90
2023-01-12T20:56:32.191Z,99.90
2023-01-12T20:58:59.619Z,99.90
2023-01-12T21:01:26.925Z,99.90
2023-01-12T21:03:53.658Z,99.90
2023-01-12T21:06:21.242Z,99.90
2023-01-12T21:08:48.004Z,99.90
2023-01-12T21:11:17.308Z,99.90
2023-01-12T21:13:44.020Z,99.90
2023-01-12T21:16:14.533Z,99.90
2023-01-12T21:18:41.610Z,99.90
2023-01-12T21:21:08.374Z,99.90
2023-01-12T21:23:35.211Z,99.90
2023-01-12T21:26:02.159Z,99.90
2023-01-12T21:28:30.328Z,99.90
2023-01-12T21:31:03.338Z,99.90
2023-01-12T21:33:30.445Z,99.90
2023-01-12T21:35:58.209Z,99.90
2023-01-12T21:38:26.087Z,99.50
2023-01-12T21:40:52.826Z,99.30
2023-01-12T21:43:19.764Z,99.80
2023-01-12T21:45:52.490Z,99.60
2023-01-12T21:48:21.865Z,99.80
2023-01-12T21:50:48.628Z,99.90
2023-01-12T21:53:17.793Z,99.90
2023-01-12T21:55:56.805Z,99.80
2023-01-12T21:58:24.367Z,99.90
2023-01-12T22:00:51.644Z,98.40
2023-01-12T22:03:18.589Z,99.00
2023-01-12T22:05:47.653Z,98.10
2023-01-12T22:08:14.356Z,97.90
2023-01-12T22:10:41.091Z,97.80
2023-01-12T22:13:11.449Z,98.80
2023-01-12T22:15:38.064Z,98.10
2023-01-12T22:18:04.816Z,98.10
2023-01-12T22:20:31.803Z,98.50
2023-01-12T22:22:58.696Z,98.40
2023-01-12T22:25:26.380Z,98.40
2023-01-12T22:27:53.554Z,98.50
2023-01-12T22:30:24.089Z,99.10
2023-01-12T22:32:55.578Z,98.90
2023-01-12T22:35:23.072Z,98.40
2023-01-12T22:37:49.652Z,98.10
2023-01-12T22:40:16.672Z,98.10
2023-01-12T22:43:01.779Z,98.30
2023-01-12T22:45:28.579Z,97.70
2023-01-12T22:47:56.311Z,97.50
2023-01-12T22:50:24.595Z,97.70
2023-01-12T22:52:52.567Z,96.80
2023-01-12T22:55:20.562Z,96.80
2023-01-12T22:57:47.303Z,97.10
2023-01-12T23:00:18.822Z,97.30
2023-01-12T23:03:01.233Z,96.50
2023-01-12T23:05:35.476Z,96.70
2023-01-12T23:08:06.291Z,97.50
2023-01-12T23:10:33.810Z,97.60
2023-01-12T23:13:11.466Z,97.30
2023-01-12T23:15:54.006Z,97.20
2023-01-12T23:18:27.232Z,97.20
2023-01-12T23:21:00.239Z,97.20
2023-01-12T23:23:26.836Z,97.50
2023-01-12T23:25:53.417Z,96.80
2023-01-12T23:28:19.984Z,97.20
2023-01-12T23:30:46.591Z,96.80
2023-01-12T23:33:13.209Z,96.50
2023-01-12T23:35:41.588Z,96.30
2023-01-12T23:38:12.586Z,96.40
2023-01-12T23:40:39.144Z,95.00
2023-01-12T23:43:05.711Z,95.40
2023-01-12T23:45:33.949Z,94.60
2023-01-12T23:48:00.545Z,94.80
2023-01-12T23:50:27.129Z,94.20
2023-01-12T23:52:53.714Z,94.00
2023-01-12T23:55:20.297Z,93.70
2023-01-12T23:57:47.825Z,93.50
